Time;durP1;ratioP1;P1;durP2;ratioP2;P2;SDS_P1;SDS_P2;PMS_P1;PMS_P2;Temp;Humidity;BMP_temperature;BMP_pressure;BME280_temperature;BME280_humidity;BME280_pressure;Samples;Min_cycle;Max_cycle;Signal;HPM_P1;HPM_P2
2023/05/03 00:00:27;;;;;;;;;;;;;;;11.08;64.42;100745.06;1089254;46;19966;-83
2023/05/03 00:01:31;;;;;;;;;;;;;;;11.07;64.59;100742.53;1088169;46;20023;-85
2023/05/03 00:02:32;;;;;;;;;;;;;;;11.04;64.39;100748.13;1087452;47;19939;-85
2023/05/03 00:03:36;;;;;;;;;;;;;;;11.01;64.65;100749.25;1087369;54;19950;-85
2023/05/03 00:04:37;;;;;;;;;;;;;;;10.96;64.77;100746.09;1088065;46;19946;-86
2023/05/03 00:05:44;;;;;;;;;;;;;;;10.95;64.88;100749.78;1088961;39;20150;-85
2023/05/03 00:06:45;;;;;;;;;;;;;;;10.88;64.91;100749.44;1087569;54;19939;-84
2023/05/03 00:07:49;;;;;;;;;;;;;;;10.86;65.14;100753.25;1087353;54;19961;-83
2023/05/03 00:08:50;;;;;;;;;;;;;;;10.89;65.07;100760.97;1087533;54;19950;-85
2023/05/03 00:09:54;;;;;;;;;;;;;;;10.93;64.94;100765.09;1087455;54;19939;-86
2023/05/03 00:10:58;;;;;;;;;;;;;;;10.92;65.02;100756.22;1087415;54;19943;-83
2023/05/03 00:12:03;;;;;;;;;;;;;;;10.93;64.94;100755.25;1087830;46;19946;-85
2023/05/03 00:13:05;;;;;;;;;;;;;;;10.94;64.92;100753.44;1087989;46;19998;-85
2023/05/03 00:14:09;;;;;;;;;;;;;;;10.92;64.94;100763.41;1087584;46;19957;-85
2023/05/03 00:15:10;;;;;;;;;;;;;;;10.97;64.66;100758.50;1087898;46;19939;-86
2023/05/03 00:16:14;;;;;;;;;;;;;;;11.04;64.46;100753.50;1088766;46;20013;-84
2023/05/03 00:17:15;;;;;;;;;;;;;;;11.10;63.95;100755.63;1087172;46;19947;-85
2023/05/03 00:18:19;;;;;;;;;;;;;;;11.14;63.87;100754.41;1087173;54;19958;-83
2023/05/03 00:19:20;;;;;;;;;;;;;;;11.08;64.34;100760.28;1087179;54;19942;-82
2023/05/03 00:20:24;;;;;;;;;;;;;;;11.03;64.42;100758.00;1089255;46;20002;-85
2023/05/03 00:21:28;;;;;;;;;;;;;;;10.95;64.73;100759.63;1087252;54;20288;-84
2023/05/03 00:22:32;;;;;;;;;;;;;;;10.93;64.72;100751.72;1087521;46;19962;-84
2023/05/03 00:23:33;;;;;;;;;;;;;;;10.92;65.08;100752.72;1087262;54;19947;-85
2023/05/03 00:24:37;;;;;;;;;;;;;;;10.87;65.11;100752.22;1087283;47;20294;-83
2023/05/03 00:25:39;;;;;;;;;;;;;;;10.85;65.24;100759.56;1087282;47;20010;-83
2023/05/03 00:26:43;;;;;;;;;;;;;;;10.82;65.29;100757.97;1087691;46;19950;-83
2023/05/03 00:27:44;;;;;;;;;;;;;;;10.81;65.45;100756.31;1087219;54;19946;-83
2023/05/03 00:28:48;;;;;;;;;;;;;;;10.77;65.53;100755.69;1087522;46;19950;-83
2023/05/03 00:29:50;;;;;;;;;;;;;;;10.74;65.66;100758.63;1087242;54;19939;-81
2023/05/03 00:30:54;;;;;;;;;;;;;;;10.73;65.70;100753.41;1087161;54;19994;-82
2023/05/03 00:31:55;;;;;;;;;;;;;;;10.70;65.79;100751.81;1087139;54;19943;-82
2023/05/03 00:32:59;;;;;;;;;;;;;;;10.72;65.49;100755.22;1087112;54;19950;-81
2023/05/03 00:34:00;;;;;;;;;;;;;;;10.71;65.82;100758.03;1087073;54;20238;-82
2023/05/03 00:35:04;;;;;;;;;;;;;;;10.73;65.71;100753.41;1087187;54;19939;-83
2023/05/03 00:36:09;;;;;;;;;;;;;;;10.71;65.87;100758.88;1087224;54;19939;-83
2023/05/03 00:37:18;;;;;;;;;;;;;;;10.71;65.75;100756.19;1087411;46;19949;-85
2023/05/03 00:38:19;;;;;;;;;;;;;;;10.72;65.61;100757.06;1088686;46;19939;-83
2023/05/03 00:39:23;;;;;;;;;;;;;;;10.70;65.53;100754.50;1087223;54;19974;-82
2023/05/03 00:40:27;;;;;;;;;;;;;;;10.64;66.11;100749.69;1087269;54;19947;-84
2023/05/03 00:41:28;;;;;;;;;;;;;;;10.56;66.11;100755.66;1088161;46;19939;-83
2023/05/03 00:42:32;;;;;;;;;;;;;;;10.57;66.16;100751.19;1087311;54;19942;-86
2023/05/03 00:43:34;;;;;;;;;;;;;;;10.51;66.37;100752.53;1087423;54;19965;-86
2023/05/03 00:44:38;;;;;;;;;;;;;;;10.48;66.52;100752.78;1087478;54;19946;-85
2023/05/03 00:45:40;;;;;;;;;;;;;;;10.47;66.84;100747.56;1087577;47;19942;-84
2023/05/03 00:46:44;;;;;;;;;;;;;;;10.45;66.42;100751.22;1087561;54;19954;-85
2023/05/03 00:47:45;;;;;;;;;;;;;;;10.48;66.75;100743.91;1087534;54;19934;-84
2023/05/03 00:48:50;;;;;;;;;;;;;;;10.50;66.49;100749.97;1087978;46;19945;-83
2023/05/03 00:49:51;;;;;;;;;;;;;;;10.48;66.78;100746.59;1087521;47;19990;-84
2023/05/03 00:50:56;;;;;;;;;;;;;;;10.46;66.54;100738.69;1087647;47;19989;-85
2023/05/03 00:51:58;;;;;;;;;;;;;;;10.48;66.46;100738.56;1087710;47;19943;-85
2023/05/03 00:53:04;;;;;;;;;;;;;;;10.45;66.82;100732.50;1087415;54;19943;-84
2023/05/03 00:54:06;;;;;;;;;;;;;;;10.44;66.94;100738.81;1087435;54;19943;-83
2023/05/03 00:55:11;;;;;;;;;;;;;;;10.39;66.91;100738.34;1087626;54;19987;-82
2023/05/03 00:56:16;;;;;;;;;;;;;;;10.37;66.90;100739.41;1087557;54;19984;-84
2023/05/03 00:57:21;;;;;;;;;;;;;;;10.38;67.09;100734.00;1087451;54;19950;-83
2023/05/03 00:58:22;;;;;;;;;;;;;;;10.37;66.83;100734.97;1087344;54;19942;-84
2023/05/03 00:59:26;;;;;;;;;;;;;;;10.41;66.86;100740.91;1087878;46;19950;-83
2023/05/03 01:00:28;;;;;;;;;;;;;;;10.42;66.63;100731.91;1087484;54;20027;-84
2023/05/03 01:01:32;;;;;;;;;;;;;;;10.43;66.76;100730.94;1087503;54;19950;-84
2023/05/03 01:02:33;;;;;;;;;;;;;;;10.44;66.59;100738.81;1088592;46;19943;-83
2023/05/03 01:03:40;;;;;;;;;;;;;;;10.45;66.59;100734.31;1087907;46;19950;-85
2023/05/03 01:04:42;;;;;;;;;;;;;;;10.42;66.83;100727.41;1088480;46;19943;-87
2023/05/03 01:05:53;;;;;;;;;;;;;;;10.32;67.20;100733.59;1087537;54;19943;-86
2023/05/03 01:07:00;;;;;;;;;;;;;;;10.32;67.02;100737.13;1088182;46;19965;-83
2023/05/03 01:08:10;;;;;;;;;;;;;;;10.25;67.21;100725.25;1087535;54;20141;-84
2023/05/03 01:09:19;;;;;;;;;;;;;;;10.29;67.29;100738.22;1088111;46;19945;-84
2023/05/03 01:10:25;;;;;;;;;;;;;;;10.31;67.44;100740.75;1087884;46;19957;-82
2023/05/03 01:11:31;;;;;;;;;;;;;;;10.32;67.09;100731.78;1087606;54;20014;-84
2023/05/03 01:12:39;;;;;;;;;;;;;;;10.39;66.69;100735.66;1087993;46;19950;-85
2023/05/03 01:13:45;;;;;;;;;;;;;;;10.35;67.17;100734.19;1087586;54;19942;-84
2023/05/03 01:14:53;;;;;;;;;;;;;;;10.35;67.05;100741.34;1087601;54;19938;-84
2023/05/03 01:16:01;;;;;;;;;;;;;;;10.34;67.29;100735.16;1087592;47;19954;-85
2023/05/03 01:17:05;;;;;;;;;;;;;;;10.33;67.34;100738.81;1087389;54;19943;-83
2023/05/03 01:18:12;;;;;;;;;;;;;;;10.33;67.13;100729.97;1087191;54;19950;-82
2023/05/03 01:19:18;;;;;;;;;;;;;;;10.27;67.12;100739.34;1087089;54;19943;-82
2023/05/03 01:20:24;;;;;;;;;;;;;;;10.23;67.74;100737.88;1088773;39;20229;-81
2023/05/03 01:21:26;;;;;;;;;;;;;;;10.11;68.09;100740.56;1087125;54;19942;-80
2023/05/03 01:22:34;;;;;;;;;;;;;;;10.06;68.31;100739.28;1088326;46;19943;-82
2023/05/03 01:23:42;;;;;;;;;;;;;;;10.05;67.97;100735.72;1087096;54;19949;-79
2023/05/03 01:24:49;;;;;;;;;;;;;;;9.99;68.44;100737.06;1088535;39;20184;-82
2023/05/03 01:25:53;;;;;;;;;;;;;;;10.02;68.27;100746.66;1087026;54;19938;-82
2023/05/03 01:26:58;;;;;;;;;;;;;;;9.94;68.67;100743.75;1087187;54;19946;-80
2023/05/03 01:28:00;;;;;;;;;;;;;;;9.94;68.55;100741.09;1087027;54;19938;-81
2023/05/03 01:29:04;;;;;;;;;;;;;;;9.96;68.56;100739.16;1087093;54;19949;-82
2023/05/03 01:30:06;;;;;;;;;;;;;;;9.94;68.78;100738.41;1087103;54;19946;-83
2023/05/03 01:31:10;;;;;;;;;;;;;;;9.94;68.58;100746.44;1087260;46;19966;-81
2023/05/03 01:32:14;;;;;;;;;;;;;;;9.94;68.54;100746.44;1088411;39;20569;-80
2023/05/03 01:33:23;;;;;;;;;;;;;;;9.88;68.97;100745.09;1087243;54;19950;-79
2023/05/03 01:34:28;;;;;;;;;;;;;;;9.86;68.79;100733.72;1087209;54;19939;-83
2023/05/03 01:35:37;;;;;;;;;;;;;;;9.87;68.65;100734.53;1087235;54;19938;-85
2023/05/03 01:36:40;;;;;;;;;;;;;;;9.89;68.85;100736.13;1087644;46;19973;-82
2023/05/03 01:37:48;;;;;;;;;;;;;;;9.90;68.74;100735.16;1087167;46;19994;-83
2023/05/03 01:38:50;;;;;;;;;;;;;;;9.88;68.86;100729.06;1087219;54;19942;-82
2023/05/03 01:39:57;;;;;;;;;;;;;;;9.85;69.02;100737.34;1086990;54;19950;-82
2023/05/03 01:41:05;;;;;;;;;;;;;;;9.82;68.85;100730.41;1087119;54;19942;-81
2023/05/03 01:42:09;;;;;;;;;;;;;;;9.77;69.01;100735.28;1087412;54;19942;-83
2023/05/03 01:43:11;;;;;;;;;;;;;;;9.75;69.31;100734.56;1087869;46;19942;-80
2023/05/03 01:44:15;;;;;;;;;;;;;;;9.78;69.01;100736.13;1087079;47;19935;-84
2023/05/03 01:45:17;;;;;;;;;;;;;;;9.76;69.24;100730.91;1088167;46;19938;-84
2023/05/03 01:46:21;;;;;;;;;;;;;;;9.78;69.22;100731.66;1087161;54;19950;-84
2023/05/03 01:47:22;;;;;;;;;;;;;;;9.79;69.22;100728.00;1087389;54;19943;-80
2023/05/03 01:48:26;;;;;;;;;;;;;;;9.74;69.76;100722.16;1087109;47;19945;-83
2023/05/03 01:49:28;;;;;;;;;;;;;;;9.75;69.62;100731.03;1087415;54;19939;-84
2023/05/03 01:50:31;;;;;;;;;;;;;;;9.77;69.44;100727.28;1087400;46;19938;-83
2023/05/03 01:51:32;;;;;;;;;;;;;;;9.84;69.24;100725.81;1087815;46;19938;-86
2023/05/03 01:52:36;;;;;;;;;;;;;;;9.90;68.60;100720.97;1087030;54;19950;-79
2023/05/03 01:53:38;;;;;;;;;;;;;;;9.87;68.76;100718.53;1086919;54;20014;-81
2023/05/03 01:54:41;;;;;;;;;;;;;;;9.88;69.07;100725.56;1086934;54;19939;-79
2023/05/03 01:55:42;;;;;;;;;;;;;;;9.92;68.74;100729.69;1087010;54;19945;-80
2023/05/03 01:56:49;;;;;;;;;;;;;;;9.92;68.73;100727.88;1086933;54;20306;-84
2023/05/03 01:57:50;;;;;;;;;;;;;;;9.88;69.11;100728.25;1087903;46;19939;-84
2023/05/03 01:58:54;;;;;;;;;;;;;;;9.93;68.97;100729.56;1088182;46;19943;-84
2023/05/03 01:59:55;;;;;;;;;;;;;;;9.96;68.66;100725.78;1087585;54;20007;-84
2023/05/03 02:00:59;;;;;;;;;;;;;;;9.93;69.16;100731.38;1087528;47;19998;-84
2023/05/03 02:02:00;;;;;;;;;;;;;;;9.94;68.88;100733.06;1087944;46;19965;-84
2023/05/03 02:03:04;;;;;;;;;;;;;;;9.92;68.83;100735.03;1087381;47;19942;-83
2023/05/03 02:04:06;;;;;;;;;;;;;;;9.93;68.81;100731.38;1087053;47;19947;-81
2023/05/03 02:05:11;;;;;;;;;;;;;;;9.94;68.67;100743.75;1087124;54;19939;-85
2023/05/03 02:06:12;;;;;;;;;;;;;;;9.86;69.07;100733.72;1087312;54;19966;-84
2023/05/03 02:07:16;;;;;;;;;;;;;;;9.88;68.98;100733.56;1087072;54;19938;-83
2023/05/03 02:08:17;;;;;;;;;;;;;;;9.87;69.34;100745.22;1087201;54;19939;-82
2023/05/03 02:09:21;;;;;;;;;;;;;;;9.90;68.96;100734.31;1087194;54;19945;-84
2023/05/03 02:10:22;;;;;;;;;;;;;;;9.90;69.08;100734.31;1087185;54;19965;-80
2023/05/03 02:11:26;;;;;;;;;;;;;;;9.95;68.61;100737.44;1087223;54;19942;-83
2023/05/03 02:12:31;;;;;;;;;;;;;;;9.92;68.64;100740.38;1087168;54;19950;-83
2023/05/03 02:13:34;;;;;;;;;;;;;;;9.87;69.08;100731.88;1088293;39;20723;-81
2023/05/03 02:14:36;;;;;;;;;;;;;;;9.78;69.59;100733.44;1087019;54;19939;-84
2023/05/03 02:15:40;;;;;;;;;;;;;;;9.62;69.92;100731.19;1087655;46;19965;-81
2023/05/03 02:16:42;;;;;;;;;;;;;;;9.59;69.90;100736.75;1087149;54;19954;-85
2023/05/03 02:17:48;;;;;;;;;;;;;;;9.57;69.97;100733.34;1088990;39;20125;-82
2023/05/03 02:18:50;;;;;;;;;;;;;;;9.55;70.14;100732.63;1087249;46;19973;-83
2023/05/03 02:19:54;;;;;;;;;;;;;;;9.44;70.64;100730.81;1087262;54;19946;-83
2023/05/03 02:20:56;;;;;;;;;;;;;;;9.44;70.64;100731.66;1088079;46;19962;-80
2023/05/03 02:22:00;;;;;;;;;;;;;;;9.42;70.84;100738.94;1088051;46;19972;-79
2023/05/03 02:23:01;;;;;;;;;;;;;;;9.41;70.66;100731.91;1089063;46;19946;-79
2023/05/03 02:24:05;;;;;;;;;;;;;;;9.39;70.81;100731.16;1087198;54;19939;-84
2023/05/03 02:25:06;;;;;;;;;;;;;;;9.33;70.91;100737.81;1087443;54;19961;-85
2023/05/03 02:26:11;;;;;;;;;;;;;;;9.38;70.79;100748.13;1087571;46;19939;-82
2023/05/03 02:27:12;;;;;;;;;;;;;;;9.41;71.02;100737.25;1087328;54;19951;-82
2023/05/03 02:28:19;;;;;;;;;;;;;;;9.46;70.50;100739.53;1087859;46;19949;-85
2023/05/03 02:29:20;;;;;;;;;;;;;;;9.41;70.94;100726.56;1087543;46;19939;-83
2023/05/03 02:30:24;;;;;;;;;;;;;;;9.36;70.77;100739.41;1087393;54;19946;-84
2023/05/03 02:31:26;;;;;;;;;;;;;;;9.32;71.38;100737.97;1087113;54;20296;-82
2023/05/03 02:32:29;;;;;;;;;;;;;;;9.33;71.21;100735.16;1086896;54;19938;-82
2023/05/03 02:33:31;;;;;;;;;;;;;;;9.26;71.42;100730.44;1087140;46;19938;-82
2023/05/03 02:34:35;;;;;;;;;;;;;;;9.25;71.36;100742.09;1087027;54;19943;-83
2023/05/03 02:35:36;;;;;;;;;;;;;;;9.20;71.54;100729.94;1087003;54;19962;-80
2023/05/03 02:36:40;;;;;;;;;;;;;;;9.21;71.74;100731.63;1087024;54;19942;-82
2023/05/03 02:37:41;;;;;;;;;;;;;;;9.20;71.73;100729.94;1087018;54;19965;-81
2023/05/03 02:38:45;;;;;;;;;;;;;;;9.22;71.55;100729.81;1087005;39;20203;-82
2023/05/03 02:39:46;;;;;;;;;;;;;;;9.21;71.79;100738.78;1086937;54;19946;-83
2023/05/03 02:40:50;;;;;;;;;;;;;;;9.17;71.76;100738.16;1086924;54;19943;-79
2023/05/03 02:41:51;;;;;;;;;;;;;;;9.10;72.14;100738.78;1086915;54;19961;-79
2023/05/03 02:42:55;;;;;;;;;;;;;;;9.02;72.69;100726.03;1086905;54;19994;-80
2023/05/03 02:43:58;;;;;;;;;;;;;;;9.01;72.85;100743.00;1087030;54;19939;-79
2023/05/03 02:45:03;;;;;;;;;;;;;;;8.97;72.87;100731.72;1087172;54;19938;-85
2023/05/03 02:46:04;;;;;;;;;;;;;;;9.00;72.61;100733.28;1086977;54;19939;-81
2023/05/03 02:47:08;;;;;;;;;;;;;;;9.08;72.18;100738.88;1087261;47;19951;-84
2023/05/03 02:48:10;;;;;;;;;;;;;;;9.09;72.08;100743.25;1089192;39;20211;-84
2023/05/03 02:49:14;;;;;;;;;;;;;;;9.03;72.47;100741.91;1087360;39;20177;-83
2023/05/03 02:50:16;;;;;;;;;;;;;;;9.03;72.54;100733.06;1087188;47;19939;-85
2023/05/03 02:51:20;;;;;;;;;;;;;;;9.05;72.58;100739.13;1088578;46;19985;-85
2023/05/03 02:52:21;;;;;;;;;;;;;;;9.03;72.41;100738.41;1086888;54;19939;-80
2023/05/03 02:53:24;;;;;;;;;;;;;;;8.96;72.80;100738.00;1086898;54;19938;-79
2023/05/03 02:54:26;;;;;;;;;;;;;;;8.96;72.37;100734.50;1086890;54;19939;-78
2023/05/03 02:55:30;;;;;;;;;;;;;;;8.95;72.81;100733.63;1086996;47;19943;-82
2023/05/03 02:56:32;;;;;;;;;;;;;;;8.93;72.66;100738.22;1087162;54;19953;-79
2023/05/03 02:57:36;;;;;;;;;;;;;;;8.86;73.27;100737.00;1086784;54;19943;-81
2023/05/03 02:58:38;;;;;;;;;;;;;;;8.84;72.83;100734.47;1087260;46;19962;-82
2023/05/03 02:59:45;;;;;;;;;;;;;;;8.78;73.35;100734.94;1087141;54;19965;-81
2023/05/03 03:00:46;;;;;;;;;;;;;;;8.76;73.22;100736.88;1087157;54;19950;-86
2023/05/03 03:01:51;;;;;;;;;;;;;;;8.73;73.43;100734.44;1086965;54;19942;-80
2023/05/03 03:02:52;;;;;;;;;;;;;;;8.74;73.32;100733.47;1087634;46;19973;-79
2023/05/03 03:03:56;;;;;;;;;;;;;;;8.72;73.17;100738.06;1087249;47;19950;-81
2023/05/03 03:04:57;;;;;;;;;;;;;;;8.70;73.52;100740.84;1087340;46;19939;-79
2023/05/03 03:06:01;;;;;;;;;;;;;;;8.71;73.71;100749.69;1086797;54;20307;-80
2023/05/03 03:07:03;;;;;;;;;;;;;;;8.70;73.48;100737.31;1086847;54;19994;-81
2023/05/03 03:08:07;;;;;;;;;;;;;;;8.71;73.20;100741.69;1086767;54;19939;-78
2023/05/03 03:09:08;;;;;;;;;;;;;;;8.69;73.70;100746.31;1086713;54;19977;-80
2023/05/03 03:10:12;;;;;;;;;;;;;;;8.66;74.01;100746.53;1086831;54;19949;-81
2023/05/03 03:11:14;;;;;;;;;;;;;;;8.62;73.84;100745.91;1086932;47;19939;-84
2023/05/03 03:12:18;;;;;;;;;;;;;;;8.62;73.65;100739.72;1087206;47;19978;-85
2023/05/03 03:13:20;;;;;;;;;;;;;;;8.62;73.72;100742.38;1087862;46;19943;-85
2023/05/03 03:14:25;;;;;;;;;;;;;;;8.63;73.72;100742.28;1087196;54;19954;-83
2023/05/03 03:15:29;;;;;;;;;;;;;;;8.57;73.46;100743.59;1087258;54;19965;-83
2023/05/03 03:16:33;;;;;;;;;;;;;;;8.58;73.30;100741.75;1087101;54;19949;-83
2023/05/03 03:17:37;;;;;;;;;;;;;;;8.60;73.21;100744.34;1088633;39;20176;-87
2023/05/03 03:18:42;;;;;;;;;;;;;;;8.55;73.53;100734.84;1087029;54;19949;-82
2023/05/03 03:19:43;;;;;;;;;;;;;;;8.55;73.42;100744.66;1087089;54;19957;-81
2023/05/03 03:20:47;;;;;;;;;;;;;;;8.59;73.69;100746.13;1087873;39;20078;-84
2023/05/03 03:21:48;;;;;;;;;;;;;;;8.60;73.31;100737.16;1087306;47;19939;-81
2023/05/03 03:22:53;;;;;;;;;;;;;;;8.62;73.44;100742.38;1086866;54;19942;-82
2023/05/03 03:23:54;;;;;;;;;;;;;;;8.64;73.31;100746.66;1087421;47;19961;-85
2023/05/03 03:24:58;;;;;;;;;;;;;;;8.69;73.07;100748.97;1086751;54;20317;-83
2023/05/03 03:26:01;;;;;;;;;;;;;;;8.70;72.69;100743.50;1087319;54;19991;-86
2023/05/03 03:27:06;;;;;;;;;;;;;;;8.72;72.94;100740.72;1087338;54;19943;-86
2023/05/03 03:28:07;;;;;;;;;;;;;;;8.71;72.99;100745.22;1087263;54;19946;-86
2023/05/03 03:29:11;;;;;;;;;;;;;;;8.68;72.94;100748.09;1087089;54;19943;-84
2023/05/03 03:30:13;;;;;;;;;;;;;;;8.67;72.70;100748.22;1086997;54;19939;-83
2023/05/03 03:31:21;;;;;;;;;;;;;;;8.69;72.81;100759.63;1087963;47;19977;-86
2023/05/03 03:32:22;;;;;;;;;;;;;;;8.65;72.69;100748.31;1086860;54;19945;-81
2023/05/03 03:33:27;;;;;;;;;;;;;;;8.56;73.14;100754.34;1088247;47;20006;-83
2023/05/03 03:34:29;;;;;;;;;;;;;;;8.53;73.59;100752.75;1086899;54;19994;-82
2023/05/03 03:35:33;;;;;;;;;;;;;;;8.52;73.45;100751.06;1086861;54;19946;-83
2023/05/03 03:36:38;;;;;;;;;;;;;;;8.48;73.09;100749.59;1087723;47;19946;-81
2023/05/03 03:37:39;;;;;;;;;;;;;;;8.48;73.23;100751.41;1087216;54;19943;-84
2023/05/03 03:38:43;;;;;;;;;;;;;;;8.52;73.12;100761.72;1087197;54;19943;-83
2023/05/03 03:39:45;;;;;;;;;;;;;;;8.53;73.02;100758.09;1087024;54;19939;-82
2023/05/03 03:40:49;;;;;;;;;;;;;;;8.58;73.16;100749.75;1086981;54;19950;-80
2023/05/03 03:41:51;;;;;;;;;;;;;;;8.63;72.73;100749.41;1087258;47;19942;-80
2023/05/03 03:42:55;;;;;;;;;;;;;;;8.63;73.03;100754.75;1087249;54;19977;-80
2023/05/03 03:43:56;;;;;;;;;;;;;;;8.61;72.72;100757.53;1087267;54;19950;-82
2023/05/03 03:45:00;;;;;;;;;;;;;;;8.56;72.97;100755.22;1087543;54;19946;-83
2023/05/03 03:46:01;;;;;;;;;;;;;;;8.55;72.90;100757.97;1087516;54;19939;-83
2023/05/03 03:47:08;;;;;;;;;;;;;;;8.52;72.99;100755.56;1087358;54;19931;-82
2023/05/03 03:48:10;;;;;;;;;;;;;;;8.55;72.69;100755.31;1087327;54;19943;-84
2023/05/03 03:49:14;;;;;;;;;;;;;;;8.55;73.32;100755.31;1087869;47;19945;-82
2023/05/03 03:50:16;;;;;;;;;;;;;;;8.54;72.97;100765.13;1088137;47;19939;-83
2023/05/03 03:51:20;;;;;;;;;;;;;;;8.57;73.01;100762.25;1087022;54;19950;-84
2023/05/03 03:52:21;;;;;;;;;;;;;;;8.56;72.79;100765.88;1087772;47;19943;-83
2023/05/03 03:53:25;;;;;;;;;;;;;;;8.52;73.34;100769.72;1087088;54;19954;-82
2023/05/03 03:54:27;;;;;;;;;;;;;;;8.49;73.24;100771.75;1087182;54;19943;-83
2023/05/03 03:55:31;;;;;;;;;;;;;;;8.53;73.14;100768.75;1087095;54;20642;-81
2023/05/03 03:56:33;;;;;;;;;;;;;;;8.51;72.90;100776.00;1087366;54;19942;-83
2023/05/03 03:57:37;;;;;;;;;;;;;;;8.48;73.11;100776.25;1086960;54;19943;-82
2023/05/03 03:58:38;;;;;;;;;;;;;;;8.43;72.98;100773.91;1087448;47;19938;-83
2023/05/03 03:59:42;;;;;;;;;;;;;;;8.46;73.14;100772.81;1087556;47;19958;-83
2023/05/03 04:00:44;;;;;;;;;;;;;;;8.41;73.51;100781.16;1087286;54;19943;-85
2023/05/03 04:01:48;;;;;;;;;;;;;;;8.41;73.12;100774.94;1088927;47;19938;-82
2023/05/03 04:02:53;;;;;;;;;;;;;;;8.39;73.07;100771.56;1088152;47;20007;-85
2023/05/03 04:03:58;;;;;;;;;;;;;;;8.34;73.48;100773.69;1088438;47;20034;-83
2023/05/03 04:04:59;;;;;;;;;;;;;;;8.32;73.67;100767.63;1087345;54;19951;-83
2023/05/03 04:06:03;;;;;;;;;;;;;;;8.33;73.65;100780.00;1087480;54;19942;-84
2023/05/03 04:07:05;;;;;;;;;;;;;;;8.31;73.78;100782.78;1087035;54;19938;-82
2023/05/03 04:08:16;;;;;;;;;;;;;;;8.36;73.45;100782.44;1087835;54;19931;-82
2023/05/03 04:09:20;;;;;;;;;;;;;;;8.35;73.52;100786.06;1088461;47;19957;-84
2023/05/03 04:14:52;;;;;;;;;;;;;;;8.22;73.64;100775.47;1087235;47;19942;-82
2023/05/03 04:15:57;;;;;;;;;;;;;;;8.21;73.66;100777.28;1088100;47;19942;-85
2023/05/03 04:17:01;;;;;;;;;;;;;;;8.19;74.12;100781.00;1087644;47;19943;-82
2023/05/03 04:18:07;;;;;;;;;;;;;;;8.21;73.78;100779.94;1086987;54;19939;-79
2023/05/03 04:19:13;;;;;;;;;;;;;;;8.21;73.79;100777.28;1087868;47;19965;-80
2023/05/03 04:20:16;;;;;;;;;;;;;;;8.25;73.41;100775.25;1087043;54;19939;-82
2023/05/03 04:21:21;;;;;;;;;;;;;;;8.24;73.64;100774.38;1086906;54;19939;-81
2023/05/03 04:22:23;;;;;;;;;;;;;;;8.25;73.35;100783.25;1087226;47;19939;-80
2023/05/03 04:23:26;;;;;;;;;;;;;;;8.28;73.15;100773.19;1087006;54;20334;-83
2023/05/03 04:24:30;;;;;;;;;;;;;;;8.28;73.42;100778.53;1086903;54;19939;-80
2023/05/03 04:25:31;;;;;;;;;;;;;;;8.32;73.22;100783.63;1086981;54;19973;-82
2023/05/03 04:26:35;;;;;;;;;;;;;;;8.34;73.12;100784.34;1087085;47;20307;-83
2023/05/03 04:27:37;;;;;;;;;;;;;;;8.35;72.82;100780.75;1087424;46;19939;-80
2023/05/03 04:28:41;;;;;;;;;;;;;;;8.40;73.02;100783.94;1087033;54;19949;-79
2023/05/03 04:29:42;;;;;;;;;;;;;;;8.41;72.67;100783.81;1088637;46;19954;-81
2023/05/03 04:30:47;;;;;;;;;;;;;;;8.47;72.19;100786.97;1087115;54;19939;-79
2023/05/03 04:31:48;;;;;;;;;;;;;;;8.42;72.45;100782.84;1087073;54;19950;-79
2023/05/03 04:32:53;;;;;;;;;;;;;;;8.42;72.27;100787.31;1087306;54;19984;-83
2023/05/03 04:33:57;;;;;;;;;;;;;;;8.44;72.47;100782.72;1087700;39;20244;-86
2023/05/03 04:35:01;;;;;;;;;;;;;;;8.40;72.03;100783.94;1087807;46;19942;-83
2023/05/03 04:36:03;;;;;;;;;;;;;;;8.34;72.30;100790.56;1087208;54;19962;-82
2023/05/03 04:37:07;;;;;;;;;;;;;;;8.30;72.82;100788.22;1087087;47;19962;-80
2023/05/03 04:38:09;;;;;;;;;;;;;;;8.32;72.58;100791.59;1087371;46;19977;-83
2023/05/03 04:39:14;;;;;;;;;;;;;;;8.37;72.71;100792.13;1087114;54;19946;-81
2023/05/03 04:40:16;;;;;;;;;;;;;;;8.47;72.44;100781.66;1087749;46;20010;-81
2023/05/03 04:41:20;;;;;;;;;;;;;;;8.54;71.81;100783.78;1087208;54;19950;-82
2023/05/03 04:42:22;;;;;;;;;;;;;;;8.55;71.57;100788.16;1087693;46;19969;-84
2023/05/03 04:43:26;;;;;;;;;;;;;;;8.55;71.63;100792.63;1087062;54;19950;-79
2023/05/03 04:44:28;;;;;;;;;;;;;;;8.56;71.52;100789.00;1086989;46;19938;-80
2023/05/03 04:45:32;;;;;;;;;;;;;;;8.58;71.41;100787.06;1087186;46;19950;-80
2023/05/03 04:46:34;;;;;;;;;;;;;;;8.54;71.61;100790.94;1087106;47;19942;-79
2023/05/03 04:47:39;;;;;;;;;;;;;;;8.48;71.57;100783.38;1087033;54;19999;-82
2023/05/03 04:48:40;;;;;;;;;;;;;;;8.48;71.74;100792.25;1087081;54;19991;-84
2023/05/03 04:49:49;;;;;;;;;;;;;;;8.49;71.95;100788.63;1087227;54;19989;-83
2023/05/03 04:50:52;;;;;;;;;;;;;;;8.48;71.75;100792.25;1088007;46;19939;-84
2023/05/03 04:51:56;;;;;;;;;;;;;;;8.47;71.99;100786.97;1087134;47;20027;-82
2023/05/03 04:53:01;;;;;;;;;;;;;;;8.49;71.75;100793.06;1087635;46;19946;-85
2023/05/03 04:54:03;;;;;;;;;;;;;;;8.51;71.86;100792.00;1087395;46;19943;-85
2023/05/03 04:55:07;;;;;;;;;;;;;;;8.47;71.58;100789.63;1088183;46;20002;-85
2023/05/03 04:56:09;;;;;;;;;;;;;;;8.54;71.60;100796.28;1087496;46;19949;-84
2023/05/03 05:00:34;;;;;;;;;;;;;;;8.62;71.34;100793.00;1087725;54;19939;-84
2023/05/03 05:06:50;;;;;;;;;;;;;;;8.63;71.18;100800.06;1088183;47;19942;-86
2023/05/03 05:07:55;;;;;;;;;;;;;;;8.66;71.19;100802.50;1087415;54;19942;-84
2023/05/03 05:09:16;;;;;;;;;;;;;;;8.70;70.94;100804.81;1089379;46;19968;-85
2023/05/03 05:10:19;;;;;;;;;;;;;;;8.64;70.68;100804.44;1087686;54;19927;-83
2023/05/03 05:11:26;;;;;;;;;;;;;;;8.62;70.96;100809.88;1088714;46;19962;-83
2023/05/03 05:12:39;;;;;;;;;;;;;;;8.67;71.02;100798.88;1088230;47;19953;-84
2023/05/03 05:13:45;;;;;;;;;;;;;;;8.60;70.96;100801.13;1088382;46;19954;-85
2023/05/03 05:14:55;;;;;;;;;;;;;;;8.55;71.49;100820.13;1091115;46;19950;-85
2023/05/03 05:16:00;;;;;;;;;;;;;;;8.54;71.41;100805.09;1088229;46;19938;-86
2023/05/03 05:17:09;;;;;;;;;;;;;;;8.46;71.59;100810.13;1087442;54;19962;-85
2023/05/03 05:18:33;;;;;;;;;;;;;;;8.42;71.80;100816.63;1088199;54;19934;-85
2023/05/03 05:19:42;;;;;;;;;;;;;;;8.41;71.72;100813.13;1088043;54;19950;-85
2023/05/03 05:20:47;;;;;;;;;;;;;;;8.37;72.19;100810.78;1088243;46;19966;-85
2023/05/03 05:23:22;;;;;;;;;;;;;;;8.47;71.78;100810.97;1088026;46;19942;-86
2023/05/03 05:24:43;;;;;;;;;;;;;;;8.48;71.66;100815.34;1088487;46;19965;-84
2023/05/03 05:26:05;;;;;;;;;;;;;;;8.43;71.66;100805.88;1088263;54;19948;-85
2023/05/03 05:27:11;;;;;;;;;;;;;;;8.42;72.15;100813.97;1088195;54;19938;-83
2023/05/03 05:28:29;;;;;;;;;;;;;;;8.47;72.09;100811.84;1088665;46;19939;-86
2023/05/03 05:29:32;;;;;;;;;;;;;;;8.37;71.98;100819.63;1087864;54;19939;-84
2023/05/03 05:30:37;;;;;;;;;;;;;;;8.39;72.02;100817.69;1088035;54;19939;-83
2023/05/03 05:31:51;;;;;;;;;;;;;;;8.38;72.05;100818.66;1087982;54;19954;-85
2023/05/03 05:32:53;;;;;;;;;;;;;;;8.35;72.39;100818.03;1088058;54;20311;-84
2023/05/03 05:34:00;;;;;;;;;;;;;;;8.42;71.93;100814.81;1088272;54;19946;-85
2023/05/03 05:35:29;;;;;;;;;;;;;;;8.50;72.05;100811.59;1088316;46;19962;-84
2023/05/03 05:36:37;;;;;;;;;;;;;;;8.63;71.22;100813.38;1088243;54;19990;-85
2023/05/03 05:37:38;;;;;;;;;;;;;;;8.67;71.39;100810.38;1087953;46;20002;-84
2023/05/03 05:38:55;;;;;;;;;;;;;;;8.70;70.96;100812.81;1088250;54;19948;-85
2023/05/03 05:41:04;;;;;;;;;;;;;;;8.78;70.72;100808.72;1087462;54;19947;-84
2023/05/03 05:42:15;;;;;;;;;;;;;;;8.74;70.56;100803.63;1088113;39;20479;-84
2023/05/03 05:44:56;;;;;;;;;;;;;;;8.67;70.98;100805.03;1087262;54;19938;-84
2023/05/03 05:46:05;;;;;;;;;;;;;;;8.63;71.11;100805.38;1087213;54;19965;-83
2023/05/03 05:47:10;;;;;;;;;;;;;;;8.68;71.01;100804.09;1087052;54;20332;-85
2023/05/03 05:48:15;;;;;;;;;;;;;;;8.70;70.91;100806.63;1087008;54;19946;-84
2023/05/03 05:49:16;;;;;;;;;;;;;;;8.68;71.24;100803.25;1087585;46;19950;-84